sensor_id;sensor_type;location;lat;lon;timestamp;P1;durP1;ratioP1;P2;durP2;ratioP2
73120;SDS011;61307;49.628;-1.624;2023-12-20T00:01:16;3.75;;;1.48;;
73120;SDS011;61307;49.628;-1.624;2023-12-20T00:03:43;5.28;;;1.60;;
73120;SDS011;61307;49.628;-1.624;2023-12-20T00:06:11;4.90;;;1.48;;
73120;SDS011;61307;49.628;-1.624;2023-12-20T00:08:38;4.20;;;1.35;;
73120;SDS011;61307;49.628;-1.624;2023-12-20T00:11:03;5.38;;;1.60;;
73120;SDS011;61307;49.628;-1.624;2023-12-20T00:13:30;5.20;;;1.52;;
73120;SDS011;61307;49.628;-1.624;2023-12-20T00:15:57;6.80;;;1.75;;
73120;SDS011;61307;49.628;-1.624;2023-12-20T00:18:24;4.13;;;1.30;;
73120;SDS011;61307;49.628;-1.624;2023-12-20T00:20:51;3.30;;;1.30;;
73120;SDS011;61307;49.628;-1.624;2023-12-20T00:23:19;3.75;;;1.30;;
73120;SDS011;61307;49.628;-1.624;2023-12-20T00:25:48;4.63;;;1.58;;
73120;SDS011;61307;49.628;-1.624;2023-12-20T00:28:15;6.35;;;1.70;;
73120;SDS011;61307;49.628;-1.624;2023-12-20T00:30:42;5.75;;;1.35;;
73120;SDS011;61307;49.628;-1.624;2023-12-20T00:33:09;5.93;;;1.50;;
73120;SDS011;61307;49.628;-1.624;2023-12-20T00:35:35;3.05;;;1.23;;
73120;SDS011;61307;49.628;-1.624;2023-12-20T00:38:02;4.00;;;1.20;;
73120;SDS011;61307;49.628;-1.624;2023-12-20T00:40:31;3.63;;;1.15;;
73120;SDS011;61307;49.628;-1.624;2023-12-20T00:42:58;4.75;;;1.30;;
73120;SDS011;61307;49.628;-1.624;2023-12-20T00:45:25;4.65;;;1.48;;
73120;SDS011;61307;49.628;-1.624;2023-12-20T00:47:52;5.25;;;1.42;;
73120;SDS011;61307;49.628;-1.624;2023-12-20T00:50:19;4.00;;;1.45;;
73120;SDS011;61307;49.628;-1.624;2023-12-20T00:52:46;3.38;;;1.40;;
73120;SDS011;61307;49.628;-1.624;2023-12-20T00:55:13;4.15;;;1.48;;
73120;SDS011;61307;49.628;-1.624;2023-12-20T00:57:41;7.40;;;1.40;;
73120;SDS011;61307;49.628;-1.624;2023-12-20T01:00:09;3.35;;;1.30;;
73120;SDS011;61307;49.628;-1.624;2023-12-20T01:02:36;7.95;;;1.65;;
73120;SDS011;61307;49.628;-1.624;2023-12-20T01:05:03;5.60;;;1.58;;
73120;SDS011;61307;49.628;-1.624;2023-12-20T01:07:32;3.83;;;1.30;;
73120;SDS011;61307;49.628;-1.624;2023-12-20T01:09:59;4.72;;;1.52;;
73120;SDS011;61307;49.628;-1.624;2023-12-20T01:12:26;4.03;;;1.17;;
73120;SDS011;61307;49.628;-1.624;2023-12-20T01:14:53;5.32;;;1.70;;
73120;SDS011;61307;49.628;-1.624;2023-12-20T01:17:20;5.07;;;1.65;;
73120;SDS011;61307;49.628;-1.624;2023-12-20T01:19:47;5.70;;;1.45;;
73120;SDS011;61307;49.628;-1.624;2023-12-20T01:22:14;4.70;;;1.17;;
73120;SDS011;61307;49.628;-1.624;2023-12-20T01:24:40;4.53;;;1.38;;
73120;SDS011;61307;49.628;-1.624;2023-12-20T01:27:07;4.03;;;1.17;;
73120;SDS011;61307;49.628;-1.624;2023-12-20T01:29:34;3.53;;;1.38;;
73120;SDS011;61307;49.628;-1.624;2023-12-20T01:32:02;3.40;;;1.20;;
73120;SDS011;61307;49.628;-1.624;2023-12-20T01:34:30;4.15;;;1.25;;
73120;SDS011;61307;49.628;-1.624;2023-12-20T01:36:56;5.22;;;1.60;;
73120;SDS011;61307;49.628;-1.624;2023-12-20T01:39:23;4.25;;;1.52;;
73120;SDS011;61307;49.628;-1.624;2023-12-20T01:41:50;4.80;;;1.35;;
73120;SDS011;61307;49.628;-1.624;2023-12-20T01:44:17;5.85;;;1.73;;
73120;SDS011;61307;49.628;-1.624;2023-12-20T01:46:44;3.10;;;1.30;;
73120;SDS011;61307;49.628;-1.624;2023-12-20T01:49:13;5.40;;;1.42;;
73120;SDS011;61307;49.628;-1.624;2023-12-20T01:51:40;3.47;;;1.30;;
73120;SDS011;61307;49.628;-1.624;2023-12-20T01:54:08;4.53;;;1.42;;
73120;SDS011;61307;49.628;-1.624;2023-12-20T01:56:35;4.03;;;1.33;;
73120;SDS011;61307;49.628;-1.624;2023-12-20T01:59:02;4.03;;;1.58;;
73120;SDS011;61307;49.628;-1.624;2023-12-20T02:01:29;8.50;;;1.88;;
73120;SDS011;61307;49.628;-1.624;2023-12-20T02:03:57;4.70;;;1.67;;
73120;SDS011;61307;49.628;-1.624;2023-12-20T02:06:26;4.95;;;1.65;;
73120;SDS011;61307;49.628;-1.624;2023-12-20T02:08:56;6.47;;;1.58;;
73120;SDS011;61307;49.628;-1.624;2023-12-20T02:11:24;4.30;;;1.50;;
73120;SDS011;61307;49.628;-1.624;2023-12-20T02:13:51;6.30;;;1.60;;
73120;SDS011;61307;49.628;-1.624;2023-12-20T02:16:19;4.63;;;1.40;;
73120;SDS011;61307;49.628;-1.624;2023-12-20T02:18:46;7.50;;;2.03;;
73120;SDS011;61307;49.628;-1.624;2023-12-20T02:21:13;6.13;;;1.73;;
73120;SDS011;61307;49.628;-1.624;2023-12-20T02:23:42;5.80;;;1.38;;
73120;SDS011;61307;49.628;-1.624;2023-12-20T02:26:09;5.43;;;1.60;;
73120;SDS011;61307;49.628;-1.624;2023-12-20T02:28:38;5.97;;;1.40;;
73120;SDS011;61307;49.628;-1.624;2023-12-20T02:31:06;6.10;;;1.80;;
73120;SDS011;61307;49.628;-1.624;2023-12-20T02:33:32;3.90;;;1.58;;
73120;SDS011;61307;49.628;-1.624;2023-12-20T02:35:59;8.18;;;1.85;;
73120;SDS011;61307;49.628;-1.624;2023-12-20T02:38:26;6.88;;;1.55;;
73120;SDS011;61307;49.628;-1.624;2023-12-20T02:40:54;6.15;;;1.88;;
73120;SDS011;61307;49.628;-1.624;2023-12-20T02:43:21;6.30;;;1.70;;
73120;SDS011;61307;49.628;-1.624;2023-12-20T02:45:48;5.22;;;1.23;;
73120;SDS011;61307;49.628;-1.624;2023-12-20T02:48:15;5.50;;;1.40;;
73120;SDS011;61307;49.628;-1.624;2023-12-20T02:50:42;4.82;;;1.85;;
73120;SDS011;61307;49.628;-1.624;2023-12-20T02:53:09;4.10;;;1.40;;
73120;SDS011;61307;49.628;-1.624;2023-12-20T02:55:36;7.88;;;1.70;;
73120;SDS011;61307;49.628;-1.624;2023-12-20T02:58:04;7.30;;;1.70;;
73120;SDS011;61307;49.628;-1.624;2023-12-20T03:00:31;4.47;;;1.48;;
73120;SDS011;61307;49.628;-1.624;2023-12-20T03:02:57;4.75;;;1.42;;
73120;SDS011;61307;49.628;-1.624;2023-12-20T03:05:24;6.68;;;1.58;;
73120;SDS011;61307;49.628;-1.624;2023-12-20T03:07:51;7.82;;;1.77;;
73120;SDS011;61307;49.628;-1.624;2023-12-20T03:10:18;5.20;;;2.03;;
73120;SDS011;61307;49.628;-1.624;2023-12-20T03:12:45;6.35;;;1.55;;
73120;SDS011;61307;49.628;-1.624;2023-12-20T03:15:13;8.57;;;1.60;;
73120;SDS011;61307;49.628;-1.624;2023-12-20T03:17:40;5.50;;;1.70;;
73120;SDS011;61307;49.628;-1.624;2023-12-20T03:20:08;5.07;;;1.42;;
73120;SDS011;61307;49.628;-1.624;2023-12-20T03:22:35;5.03;;;1.70;;
73120;SDS011;61307;49.628;-1.624;2023-12-20T03:25:02;8.32;;;1.75;;
73120;SDS011;61307;49.628;-1.624;2023-12-20T03:27:29;4.18;;;1.60;;
73120;SDS011;61307;49.628;-1.624;2023-12-20T03:29:56;7.03;;;1.95;;
73120;SDS011;61307;49.628;-1.624;2023-12-20T03:32:24;6.82;;;1.80;;
73120;SDS011;61307;49.628;-1.624;2023-12-20T03:34:50;6.03;;;1.80;;
73120;SDS011;61307;49.628;-1.624;2023-12-20T03:37:17;7.13;;;1.85;;
73120;SDS011;61307;49.628;-1.624;2023-12-20T03:39:44;6.97;;;1.65;;
73120;SDS011;61307;49.628;-1.624;2023-12-20T03:42:11;5.03;;;1.40;;
73120;SDS011;61307;49.628;-1.624;2023-12-20T03:44:38;6.80;;;1.95;;
73120;SDS011;61307;49.628;-1.624;2023-12-20T03:47:05;4.88;;;1.95;;
73120;SDS011;61307;49.628;-1.624;2023-12-20T03:49:34;8.15;;;2.00;;
73120;SDS011;61307;49.628;-1.624;2023-12-20T03:52:02;5.10;;;1.42;;
73120;SDS011;61307;49.628;-1.624;2023-12-20T03:54:29;5.20;;;1.60;;
73120;SDS011;61307;49.628;-1.624;2023-12-20T03:56:56;6.55;;;1.88;;
73120;SDS011;61307;49.628;-1.624;2023-12-20T03:59:23;6.05;;;1.77;;
73120;SDS011;61307;49.628;-1.624;2023-12-20T04:01:50;6.75;;;1.77;;
73120;SDS011;61307;49.628;-1.624;2023-12-20T04:04:16;7.47;;;1.88;;
73120;SDS011;61307;49.628;-1.624;2023-12-20T04:06:45;7.07;;;1.73;;
73120;SDS011;61307;49.628;-1.624;2023-12-20T04:09:12;6.68;;;1.60;;
73120;SDS011;61307;49.628;-1.624;2023-12-20T04:11:38;7.38;;;1.58;;
73120;SDS011;61307;49.628;-1.624;2023-12-20T04:14:05;7.65;;;1.70;;
73120;SDS011;61307;49.628;-1.624;2023-12-20T04:16:32;5.93;;;1.73;;
73120;SDS011;61307;49.628;-1.624;2023-12-20T04:18:59;7.57;;;1.65;;
73120;SDS011;61307;49.628;-1.624;2023-12-20T04:21:26;6.65;;;1.38;;
73120;SDS011;61307;49.628;-1.624;2023-12-20T04:23:54;4.05;;;1.48;;
73120;SDS011;61307;49.628;-1.624;2023-12-20T04:26:21;4.43;;;1.80;;
73120;SDS011;61307;49.628;-1.624;2023-12-20T04:28:48;4.90;;;1.63;;
73120;SDS011;61307;49.628;-1.624;2023-12-20T04:31:15;7.65;;;1.83;;
73120;SDS011;61307;49.628;-1.624;2023-12-20T04:33:42;6.20;;;1.75;;
73120;SDS011;61307;49.628;-1.624;2023-12-20T04:36:08;5.70;;;1.70;;
73120;SDS011;61307;49.628;-1.624;2023-12-20T04:38:35;7.50;;;2.08;;
73120;SDS011;61307;49.628;-1.624;2023-12-20T04:41:04;6.05;;;1.73;;
73120;SDS011;61307;49.628;-1.624;2023-12-20T04:43:31;6.00;;;1.67;;
73120;SDS011;61307;49.628;-1.624;2023-12-20T04:45:57;4.88;;;1.42;;
73120;SDS011;61307;49.628;-1.624;2023-12-20T04:48:24;5.80;;;2.10;;
73120;SDS011;61307;49.628;-1.624;2023-12-20T04:50:51;6.18;;;1.70;;
73120;SDS011;61307;49.628;-1.624;2023-12-20T04:53:18;7.15;;;1.95;;
73120;SDS011;61307;49.628;-1.624;2023-12-20T04:55:45;5.70;;;1.70;;
73120;SDS011;61307;49.628;-1.624;2023-12-20T04:58:13;6.20;;;2.03;;
73120;SDS011;61307;49.628;-1.624;2023-12-20T05:00:40;4.68;;;1.58;;
73120;SDS011;61307;49.628;-1.624;2023-12-20T05:03:06;4.65;;;1.83;;
73120;SDS011;61307;49.628;-1.624;2023-12-20T05:05:34;7.85;;;1.80;;
73120;SDS011;61307;49.628;-1.624;2023-12-20T05:08:01;8.07;;;1.70;;
73120;SDS011;61307;49.628;-1.624;2023-12-20T05:10:29;5.57;;;1.70;;
73120;SDS011;61307;49.628;-1.624;2023-12-20T05:12:55;7.78;;;1.98;;
73120;SDS011;61307;49.628;-1.624;2023-12-20T05:15:24;5.78;;;1.92;;
73120;SDS011;61307;49.628;-1.624;2023-12-20T05:17:50;7.20;;;1.83;;
73120;SDS011;61307;49.628;-1.624;2023-12-20T05:20:17;9.98;;;2.05;;
73120;SDS011;61307;49.628;-1.624;2023-12-20T05:22:44;3.83;;;1.38;;
73120;SDS011;61307;49.628;-1.624;2023-12-20T05:25:12;6.53;;;1.75;;
73120;SDS011;61307;49.628;-1.624;2023-12-20T05:27:39;8.43;;;1.98;;
73120;SDS011;61307;49.628;-1.624;2023-12-20T05:30:06;7.50;;;1.70;;
73120;SDS011;61307;49.628;-1.624;2023-12-20T05:32:35;5.15;;;1.52;;
73120;SDS011;61307;49.628;-1.624;2023-12-20T05:35:02;4.00;;;1.73;;
73120;SDS011;61307;49.628;-1.624;2023-12-20T05:37:29;5.13;;;1.95;;
73120;SDS011;61307;49.628;-1.624;2023-12-20T05:39:56;4.75;;;1.45;;
73120;SDS011;61307;49.628;-1.624;2023-12-20T05:42:23;5.88;;;1.50;;
73120;SDS011;61307;49.628;-1.624;2023-12-20T05:44:50;5.18;;;2.00;;
73120;SDS011;61307;49.628;-1.624;2023-12-20T05:47:17;5.28;;;1.75;;
73120;SDS011;61307;49.628;-1.624;2023-12-20T05:49:45;6.22;;;1.40;;
73120;SDS011;61307;49.628;-1.624;2023-12-20T05:52:12;5.38;;;2.05;;
73120;SDS011;61307;49.628;-1.624;2023-12-20T05:54:38;5.03;;;1.73;;
73120;SDS011;61307;49.628;-1.624;2023-12-20T05:57:05;5.25;;;1.50;;
73120;SDS011;61307;49.628;-1.624;2023-12-20T05:59:32;4.30;;;1.50;;
73120;SDS011;61307;49.628;-1.624;2023-12-20T06:01:59;6.43;;;1.70;;
73120;SDS011;61307;49.628;-1.624;2023-12-20T06:04:26;8.07;;;1.65;;
73120;SDS011;61307;49.628;-1.624;2023-12-20T06:06:54;6.28;;;1.90;;
73120;SDS011;61307;49.628;-1.624;2023-12-20T06:09:21;6.40;;;1.77;;
73120;SDS011;61307;49.628;-1.624;2023-12-20T06:11:48;6.22;;;1.77;;
73120;SDS011;61307;49.628;-1.624;2023-12-20T06:14:14;5.30;;;1.67;;
73120;SDS011;61307;49.628;-1.624;2023-12-20T06:16:41;6.18;;;1.40;;
73120;SDS011;61307;49.628;-1.624;2023-12-20T06:19:08;6.10;;;1.80;;
73120;SDS011;61307;49.628;-1.624;2023-12-20T06:21:35;8.05;;;2.05;;
73120;SDS011;61307;49.628;-1.624;2023-12-20T06:24:04;4.18;;;1.45;;
73120;SDS011;61307;49.628;-1.624;2023-12-20T06:26:31;7.30;;;1.83;;
73120;SDS011;61307;49.628;-1.624;2023-12-20T06:28:57;6.45;;;1.80;;
73120;SDS011;61307;49.628;-1.624;2023-12-20T06:31:24;5.45;;;1.60;;
73120;SDS011;61307;49.628;-1.624;2023-12-20T06:33:51;6.25;;;1.77;;
73120;SDS011;61307;49.628;-1.624;2023-12-20T06:36:22;5.38;;;1.92;;
73120;SDS011;61307;49.628;-1.624;2023-12-20T06:38:49;5.30;;;1.58;;
73120;SDS011;61307;49.628;-1.624;2023-12-20T06:41:17;4.28;;;1.42;;
73120;SDS011;61307;49.628;-1.624;2023-12-20T06:43:44;8.30;;;2.00;;
73120;SDS011;61307;49.628;-1.624;2023-12-20T06:46:12;7.47;;;1.70;;
73120;SDS011;61307;49.628;-1.624;2023-12-20T06:48:39;6.20;;;2.08;;
73120;SDS011;61307;49.628;-1.624;2023-12-20T06:51:06;4.07;;;1.60;;
73120;SDS011;61307;49.628;-1.624;2023-12-20T06:53:33;5.68;;;1.60;;
73120;SDS011;61307;49.628;-1.624;2023-12-20T06:56:00;5.90;;;1.80;;
73120;SDS011;61307;49.628;-1.624;2023-12-20T06:58:29;7.50;;;1.60;;
73120;SDS011;61307;49.628;-1.624;2023-12-20T07:00:56;6.07;;;2.13;;
73120;SDS011;61307;49.628;-1.624;2023-12-20T07:03:22;9.25;;;1.92;;
73120;SDS011;61307;49.628;-1.624;2023-12-20T07:05:49;7.40;;;2.25;;
73120;SDS011;61307;49.628;-1.624;2023-12-20T07:08:16;5.43;;;2.10;;
73120;SDS011;61307;49.628;-1.624;2023-12-20T07:10:44;5.10;;;1.75;;
73120;SDS011;61307;49.628;-1.624;2023-12-20T07:13:11;5.40;;;1.75;;
73120;SDS011;61307;49.628;-1.624;2023-12-20T07:15:40;8.32;;;2.33;;
73120;SDS011;61307;49.628;-1.624;2023-12-20T07:18:07;7.28;;;1.60;;
73120;SDS011;61307;49.628;-1.624;2023-12-20T07:20:34;4.28;;;1.60;;
73120;SDS011;61307;49.628;-1.624;2023-12-20T07:23:01;9.05;;;2.15;;
73120;SDS011;61307;49.628;-1.624;2023-12-20T07:25:28;5.28;;;1.90;;
73120;SDS011;61307;49.628;-1.624;2023-12-20T07:27:57;6.53;;;1.80;;
73120;SDS011;61307;49.628;-1.624;2023-12-20T07:30:24;5.80;;;1.70;;
73120;SDS011;61307;49.628;-1.624;2023-12-20T07:32:52;4.43;;;2.03;;
73120;SDS011;61307;49.628;-1.624;2023-12-20T07:35:19;5.97;;;1.92;;
73120;SDS011;61307;49.628;-1.624;2023-12-20T07:37:46;7.63;;;2.20;;
73120;SDS011;61307;49.628;-1.624;2023-12-20T07:40:13;6.10;;;1.60;;
73120;SDS011;61307;49.628;-1.624;2023-12-20T07:42:42;5.95;;;1.80;;
73120;SDS011;61307;49.628;-1.624;2023-12-20T07:45:09;4.45;;;1.70;;
73120;SDS011;61307;49.628;-1.624;2023-12-20T07:47:36;5.18;;;1.83;;
73120;SDS011;61307;49.628;-1.624;2023-12-20T07:50:05;5.70;;;1.83;;
73120;SDS011;61307;49.628;-1.624;2023-12-20T07:52:32;6.20;;;1.90;;
73120;SDS011;61307;49.628;-1.624;2023-12-20T07:54:59;5.03;;;1.75;;
73120;SDS011;61307;49.628;-1.624;2023-12-20T07:57:28;7.18;;;1.98;;
73120;SDS011;61307;49.628;-1.624;2023-12-20T07:59:55;3.90;;;1.60;;
73120;SDS011;61307;49.628;-1.624;2023-12-20T08:02:22;6.43;;;1.88;;
73120;SDS011;61307;49.628;-1.624;2023-12-20T08:04:49;5.90;;;1.70;;
73120;SDS011;61307;49.628;-1.624;2023-12-20T08:07:17;11.50;;;2.53;;
73120;SDS011;61307;49.628;-1.624;2023-12-20T08:09:44;8.75;;;1.70;;
73120;SDS011;61307;49.628;-1.624;2023-12-20T08:12:11;16.73;;;2.80;;
73120;SDS011;61307;49.628;-1.624;2023-12-20T08:14:38;9.73;;;2.45;;
73120;SDS011;61307;49.628;-1.624;2023-12-20T08:17:05;11.10;;;2.20;;
73120;SDS011;61307;49.628;-1.624;2023-12-20T08:19:32;5.95;;;1.95;;
73120;SDS011;61307;49.628;-1.624;2023-12-20T08:21:58;7.32;;;1.73;;
73120;SDS011;61307;49.628;-1.624;2023-12-20T08:24:27;5.43;;;1.95;;
73120;SDS011;61307;49.628;-1.624;2023-12-20T08:26:54;8.60;;;1.90;;
73120;SDS011;61307;49.628;-1.624;2023-12-20T08:29:29;11.55;;;2.25;;
73120;SDS011;61307;49.628;-1.624;2023-12-20T08:32:02;6.00;;;1.85;;
73120;SDS011;61307;49.628;-1.624;2023-12-20T08:34:41;9.50;;;1.77;;
73120;SDS011;61307;49.628;-1.624;2023-12-20T08:37:15;5.85;;;1.90;;
73120;SDS011;61307;49.628;-1.624;2023-12-20T08:39:45;7.25;;;1.50;;
73120;SDS011;61307;49.628;-1.624;2023-12-20T08:42:13;10.32;;;2.00;;
73120;SDS011;61307;49.628;-1.624;2023-12-20T08:44:40;11.25;;;2.40;;
73120;SDS011;61307;49.628;-1.624;2023-12-20T08:47:07;8.95;;;2.00;;
73120;SDS011;61307;49.628;-1.624;2023-12-20T08:49:41;5.35;;;1.80;;
73120;SDS011;61307;49.628;-1.624;2023-12-20T08:52:09;8.77;;;1.90;;
73120;SDS011;61307;49.628;-1.624;2023-12-20T08:54:40;9.23;;;1.88;;
73120;SDS011;61307;49.628;-1.624;2023-12-20T08:57:08;6.32;;;1.70;;
73120;SDS011;61307;49.628;-1.624;2023-12-20T08:59:35;8.30;;;2.10;;
73120;SDS011;61307;49.628;-1.624;2023-12-20T09:02:03;10.23;;;1.83;;
73120;SDS011;61307;49.628;-1.624;2023-12-20T09:04:30;7.78;;;1.70;;
73120;SDS011;61307;49.628;-1.624;2023-12-20T09:06:59;8.90;;;2.30;;
73120;SDS011;61307;49.628;-1.624;2023-12-20T09:09:26;7.88;;;1.98;;
73120;SDS011;61307;49.628;-1.624;2023-12-20T09:11:53;8.30;;;2.22;;
73120;SDS011;61307;49.628;-1.624;2023-12-20T09:14:21;8.43;;;2.00;;
73120;SDS011;61307;49.628;-1.624;2023-12-20T09:16:48;6.80;;;2.20;;
73120;SDS011;61307;49.628;-1.624;2023-12-20T09:19:16;14.60;;;2.08;;
73120;SDS011;61307;49.628;-1.624;2023-12-20T09:21:43;8.50;;;1.90;;
73120;SDS011;61307;49.628;-1.624;2023-12-20T09:24:10;8.13;;;3.80;;
73120;SDS011;61307;49.628;-1.624;2023-12-20T09:26:37;11.73;;;6.47;;
73120;SDS011;61307;49.628;-1.624;2023-12-20T09:29:05;17.88;;;10.75;;
73120;SDS011;61307;49.628;-1.624;2023-12-20T09:31:35;22.58;;;19.67;;
73120;SDS011;61307;49.628;-1.624;2023-12-20T09:34:03;28.88;;;25.15;;
73120;SDS011;61307;49.628;-1.624;2023-12-20T09:36:30;39.53;;;35.28;;
73120;SDS011;61307;49.628;-1.624;2023-12-20T09:39:01;36.10;;;32.20;;
73120;SDS011;61307;49.628;-1.624;2023-12-20T09:41:28;49.42;;;42.10;;
73120;SDS011;61307;49.628;-1.624;2023-12-20T09:44:00;38.53;;;33.78;;
73120;SDS011;61307;49.628;-1.624;2023-12-20T09:46:29;36.40;;;31.00;;
73120;SDS011;61307;49.628;-1.624;2023-12-20T09:49:01;32.63;;;27.10;;
73120;SDS011;61307;49.628;-1.624;2023-12-20T09:51:28;29.55;;;23.50;;
73120;SDS011;61307;49.628;-1.624;2023-12-20T09:53:57;26.08;;;21.20;;
73120;SDS011;61307;49.628;-1.624;2023-12-20T09:56:26;50.90;;;38.42;;
73120;SDS011;61307;49.628;-1.624;2023-12-20T09:58:54;45.58;;;33.42;;
73120;SDS011;61307;49.628;-1.624;2023-12-20T10:01:22;39.55;;;27.88;;
73120;SDS011;61307;49.628;-1.624;2023-12-20T10:03:51;40.47;;;27.83;;
73120;SDS011;61307;49.628;-1.624;2023-12-20T10:06:21;44.47;;;28.05;;
73120;SDS011;61307;49.628;-1.624;2023-12-20T10:08:48;34.00;;;24.65;;
73120;SDS011;61307;49.628;-1.624;2023-12-20T10:11:15;42.80;;;26.42;;
73120;SDS011;61307;49.628;-1.624;2023-12-20T10:13:42;39.50;;;26.05;;
73120;SDS011;61307;49.628;-1.624;2023-12-20T10:16:09;36.78;;;23.05;;
73120;SDS011;61307;49.628;-1.624;2023-12-20T10:18:36;34.47;;;24.00;;
73120;SDS011;61307;49.628;-1.624;2023-12-20T10:21:04;26.73;;;21.50;;
73120;SDS011;61307;49.628;-1.624;2023-12-20T10:23:32;27.60;;;18.55;;
73120;SDS011;61307;49.628;-1.624;2023-12-20T10:25:59;28.35;;;21.77;;
73120;SDS011;61307;49.628;-1.624;2023-12-20T10:28:27;30.13;;;22.52;;
73120;SDS011;61307;49.628;-1.624;2023-12-20T10:31:00;35.38;;;27.40;;
73120;SDS011;61307;49.628;-1.624;2023-12-20T10:33:27;38.08;;;33.92;;
73120;SDS011;61307;49.628;-1.624;2023-12-20T10:35:55;40.72;;;34.88;;
73120;SDS011;61307;49.628;-1.624;2023-12-20T10:38:23;52.17;;;41.15;;
73120;SDS011;61307;49.628;-1.624;2023-12-20T10:40:52;67.03;;;52.75;;
73120;SDS011;61307;49.628;-1.624;2023-12-20T10:43:24;64.30;;;51.05;;
73120;SDS011;61307;49.628;-1.624;2023-12-20T10:45:52;72.13;;;51.50;;
73120;SDS011;61307;49.628;-1.624;2023-12-20T10:48:19;58.33;;;44.75;;
73120;SDS011;61307;49.628;-1.624;2023-12-20T10:50:52;51.40;;;38.17;;
73120;SDS011;61307;49.628;-1.624;2023-12-20T10:53:21;41.92;;;25.98;;
73120;SDS011;61307;49.628;-1.624;2023-12-20T10:55:50;42.83;;;27.95;;
73120;SDS011;61307;49.628;-1.624;2023-12-20T10:58:21;46.38;;;25.33;;
73120;SDS011;61307;49.628;-1.624;2023-12-20T11:00:50;28.80;;;22.27;;
73120;SDS011;61307;49.628;-1.624;2023-12-20T11:03:22;32.05;;;20.10;;
73120;SDS011;61307;49.628;-1.624;2023-12-20T11:05:53;26.85;;;18.58;;
73120;SDS011;61307;49.628;-1.624;2023-12-20T11:08:26;27.02;;;17.35;;
73120;SDS011;61307;49.628;-1.624;2023-12-20T11:10:59;26.55;;;18.23;;
73120;SDS011;61307;49.628;-1.624;2023-12-20T11:13:32;27.45;;;16.67;;
73120;SDS011;61307;49.628;-1.624;2023-12-20T11:16:03;23.60;;;14.00;;
73120;SDS011;61307;49.628;-1.624;2023-12-20T11:18:32;19.45;;;14.13;;
73120;SDS011;61307;49.628;-1.624;2023-12-20T11:21:04;20.95;;;13.32;;
73120;SDS011;61307;49.628;-1.624;2023-12-20T11:23:33;24.00;;;13.50;;
73120;SDS011;61307;49.628;-1.624;2023-12-20T11:26:00;20.70;;;12.10;;
73120;SDS011;61307;49.628;-1.624;2023-12-20T11:28:28;16.58;;;12.07;;
73120;SDS011;61307;49.628;-1.624;2023-12-20T11:30:56;19.17;;;11.65;;
73120;SDS011;61307;49.628;-1.624;2023-12-20T11:33:25;19.55;;;11.75;;
73120;SDS011;61307;49.628;-1.624;2023-12-20T11:35:55;16.70;;;10.88;;
73120;SDS011;61307;49.628;-1.624;2023-12-20T11:38:22;14.15;;;10.10;;
73120;SDS011;61307;49.628;-1.624;2023-12-20T11:40:53;16.23;;;10.07;;
73120;SDS011;61307;49.628;-1.624;2023-12-20T11:43:30;15.50;;;9.50;;
73120;SDS011;61307;49.628;-1.624;2023-12-20T11:46:02;13.93;;;9.68;;
73120;SDS011;61307;49.628;-1.624;2023-12-20T11:48:31;16.83;;;9.02;;
73120;SDS011;61307;49.628;-1.624;2023-12-20T11:50:58;11.82;;;7.85;;
73120;SDS011;61307;49.628;-1.624;2023-12-20T11:53:25;11.30;;;7.93;;
73120;SDS011;61307;49.628;-1.624;2023-12-20T11:55:54;11.77;;;7.32;;
73120;SDS011;61307;49.628;-1.624;2023-12-20T11:58:21;14.73;;;7.68;;
73120;SDS011;61307;49.628;-1.624;2023-12-20T12:00:49;10.48;;;7.38;;
73120;SDS011;61307;49.628;-1.624;2023-12-20T12:03:16;11.30;;;6.85;;
73120;SDS011;61307;49.628;-1.624;2023-12-20T12:05:46;12.20;;;6.60;;
73120;SDS011;61307;49.628;-1.624;2023-12-20T12:08:13;14.45;;;7.25;;
73120;SDS011;61307;49.628;-1.624;2023-12-20T12:10:41;16.02;;;6.65;;
73120;SDS011;61307;49.628;-1.624;2023-12-20T12:13:09;9.93;;;6.40;;
73120;SDS011;61307;49.628;-1.624;2023-12-20T12:15:36;10.73;;;5.88;;
73120;SDS011;61307;49.628;-1.624;2023-12-20T12:18:04;10.88;;;5.85;;
73120;SDS011;61307;49.628;-1.624;2023-12-20T12:20:31;11.10;;;6.10;;
73120;SDS011;61307;49.628;-1.624;2023-12-20T12:22:58;11.10;;;5.35;;
73120;SDS011;61307;49.628;-1.624;2023-12-20T12:25:26;11.00;;;5.43;;
73120;SDS011;61307;49.628;-1.624;2023-12-20T12:27:55;13.60;;;4.80;;
73120;SDS011;61307;49.628;-1.624;2023-12-20T12:30:24;11.43;;;5.30;;
73120;SDS011;61307;49.628;-1.624;2023-12-20T12:32:51;8.48;;;4.63;;
73120;SDS011;61307;49.628;-1.624;2023-12-20T12:35:19;11.13;;;4.38;;
73120;SDS011;61307;49.628;-1.624;2023-12-20T12:37:46;8.23;;;4.60;;
73120;SDS011;61307;49.628;-1.624;2023-12-20T12:40:14;9.55;;;4.10;;
73120;SDS011;61307;49.628;-1.624;2023-12-20T12:42:42;10.68;;;4.25;;
73120;SDS011;61307;49.628;-1.624;2023-12-20T12:45:11;8.65;;;4.40;;
73120;SDS011;61307;49.628;-1.624;2023-12-20T12:47:39;7.57;;;4.35;;
73120;SDS011;61307;49.628;-1.624;2023-12-20T12:50:07;7.20;;;3.80;;
73120;SDS011;61307;49.628;-1.624;2023-12-20T12:52:34;7.13;;;3.60;;
73120;SDS011;61307;49.628;-1.624;2023-12-20T12:55:02;6.28;;;3.55;;
73120;SDS011;61307;49.628;-1.624;2023-12-20T12:57:30;8.13;;;3.45;;
73120;SDS011;61307;49.628;-1.624;2023-12-20T12:59:57;4.57;;;2.92;;
73120;SDS011;61307;49.628;-1.624;2023-12-20T13:02:24;5.82;;;3.42;;
73120;SDS011;61307;49.628;-1.624;2023-12-20T13:04:52;7.75;;;2.95;;
73120;SDS011;61307;49.628;-1.624;2023-12-20T13:07:19;9.43;;;3.00;;
73120;SDS011;61307;49.628;-1.624;2023-12-20T13:09:47;5.82;;;2.67;;
73120;SDS011;61307;49.628;-1.624;2023-12-20T13:12:16;10.23;;;3.08;;
73120;SDS011;61307;49.628;-1.624;2023-12-20T13:14:44;9.20;;;3.05;;
73120;SDS011;61307;49.628;-1.624;2023-12-20T13:17:12;5.53;;;2.90;;
73120;SDS011;61307;49.628;-1.624;2023-12-20T13:19:41;7.97;;;3.42;;
73120;SDS011;61307;49.628;-1.624;2023-12-20T13:22:13;7.72;;;2.63;;
73120;SDS011;61307;49.628;-1.624;2023-12-20T13:24:45;7.30;;;2.28;;
73120;SDS011;61307;49.628;-1.624;2023-12-20T13:27:12;4.93;;;2.55;;
73120;SDS011;61307;49.628;-1.624;2023-12-20T13:29:39;6.63;;;2.75;;
73120;SDS011;61307;49.628;-1.624;2023-12-20T13:32:06;6.35;;;2.53;;
73120;SDS011;61307;49.628;-1.624;2023-12-20T13:34:33;7.03;;;2.45;;
73120;SDS011;61307;49.628;-1.624;2023-12-20T13:37:00;7.40;;;2.53;;
73120;SDS011;61307;49.628;-1.624;2023-12-20T13:39:29;8.30;;;2.83;;
73120;SDS011;61307;49.628;-1.624;2023-12-20T13:41:56;4.53;;;2.03;;
73120;SDS011;61307;49.628;-1.624;2023-12-20T13:44:23;7.07;;;2.38;;
73120;SDS011;61307;49.628;-1.624;2023-12-20T13:46:52;8.65;;;2.40;;
73120;SDS011;61307;49.628;-1.624;2023-12-20T13:49:19;4.90;;;2.00;;
73120;SDS011;61307;49.628;-1.624;2023-12-20T13:51:46;7.72;;;2.40;;
73120;SDS011;61307;49.628;-1.624;2023-12-20T13:54:13;5.90;;;2.30;;
73120;SDS011;61307;49.628;-1.624;2023-12-20T13:56:48;4.85;;;2.15;;
73120;SDS011;61307;49.628;-1.624;2023-12-20T13:59:15;6.65;;;2.03;;
73120;SDS011;61307;49.628;-1.624;2023-12-20T14:01:45;7.85;;;2.63;;
73120;SDS011;61307;49.628;-1.624;2023-12-20T14:04:12;9.90;;;1.85;;
73120;SDS011;61307;49.628;-1.624;2023-12-20T14:06:39;8.57;;;2.13;;
73120;SDS011;61307;49.628;-1.624;2023-12-20T14:09:07;6.35;;;1.85;;
73120;SDS011;61307;49.628;-1.624;2023-12-20T14:11:37;7.05;;;2.03;;
73120;SDS011;61307;49.628;-1.624;2023-12-20T14:14:07;11.38;;;2.42;;
73120;SDS011;61307;49.628;-1.624;2023-12-20T14:16:34;6.47;;;2.30;;
73120;SDS011;61307;49.628;-1.624;2023-12-20T14:19:03;7.53;;;2.13;;
73120;SDS011;61307;49.628;-1.624;2023-12-20T14:21:32;5.18;;;1.90;;
73120;SDS011;61307;49.628;-1.624;2023-12-20T14:23:59;7.22;;;1.77;;
73120;SDS011;61307;49.628;-1.624;2023-12-20T14:26:26;4.40;;;1.88;;
73120;SDS011;61307;49.628;-1.624;2023-12-20T14:28:53;11.48;;;2.03;;
73120;SDS011;61307;49.628;-1.624;2023-12-20T14:31:22;5.38;;;1.83;;